Time;durP1;ratioP1;P1;durP2;ratioP2;P2;SDS_P1;SDS_P2;PMS_P1;PMS_P2;Temp;Humidity;BMP_temperature;BMP_pressure;BME280_temperature;BME280_humidity;BME280_pressure;Samples;Min_cycle;Max_cycle;Signal;HPM_P1;HPM_P2
2022/03/23 00:02:25;;;;;;;68.93;35.50;;;8.50;99.90;;;;;;4898742;28;20358;-74
2022/03/23 00:04:54;;;;;;;66.93;34.60;;;8.60;99.90;;;;;;4932406;28;20035;-74
2022/03/23 00:07:20;;;;;;;66.88;34.90;;;8.50;99.90;;;;;;5048033;28;20036;-74
2022/03/23 00:09:47;;;;;;;63.42;34.22;;;8.50;99.90;;;;;;5061764;28;20135;-74
2022/03/23 00:12:13;;;;;;;65.80;34.30;;;8.50;99.90;;;;;;5047596;28;20150;-74
2022/03/23 00:14:48;;;;;;;66.22;34.90;;;8.40;99.90;;;;;;4927945;28;20305;-74
2022/03/23 00:17:14;;;;;;;67.22;34.03;;;8.40;99.90;;;;;;5061721;28;20048;-74
2022/03/23 00:19:40;;;;;;;62.90;31.75;;;8.40;99.90;;;;;;5045412;28;20044;-74
2022/03/23 00:22:06;;;;;;;66.78;35.22;;;8.40;99.90;;;;;;5066215;28;20048;-74
2022/03/23 00:24:32;;;;;;;67.78;34.85;;;8.30;99.90;;;;;;5102676;28;20543;-75
2022/03/23 00:26:58;;;;;;;71.38;34.88;;;8.30;99.90;;;;;;5082977;28;20040;-74
2022/03/23 00:29:24;;;;;;;65.78;35.38;;;8.20;99.90;;;;;;4935875;28;20341;-74
2022/03/23 00:31:52;;;;;;;64.80;34.17;;;8.20;99.90;;;;;;5047019;28;20062;-74
2022/03/23 00:34:18;;;;;;;66.05;35.22;;;8.20;99.90;;;;;;5053493;28;20051;-74
2022/03/23 00:36:44;;;;;;;68.20;36.13;;;8.10;99.90;;;;;;5070866;28;20504;-74
2022/03/23 00:39:10;;;;;;;66.45;36.25;;;8.20;99.90;;;;;;4946152;28;20720;-74
2022/03/23 00:41:39;;;;;;;69.93;35.30;;;8.20;99.90;;;;;;4881147;28;20537;-74
2022/03/23 00:44:05;;;;;;;65.25;34.40;;;8.10;99.90;;;;;;4889557;28;21046;-74
2022/03/23 00:46:31;;;;;;;72.03;35.30;;;8.10;99.90;;;;;;5064011;28;20036;-74
2022/03/23 00:48:57;;;;;;;67.03;35.47;;;8.10;99.90;;;;;;5064433;28;20036;-74
2022/03/23 00:51:23;;;;;;;60.53;32.63;;;8.10;99.90;;;;;;5068618;28;20040;-74
2022/03/23 00:53:49;;;;;;;62.47;32.65;;;8.00;99.90;;;;;;5047510;28;20047;-74
2022/03/23 00:56:16;;;;;;;65.18;33.22;;;8.00;99.90;;;;;;4911668;28;20547;-74
2022/03/23 00:58:42;;;;;;;63.42;34.53;;;8.00;99.90;;;;;;5031913;28;20039;-74
2022/03/23 01:01:08;;;;;;;60.15;33.58;;;7.90;99.90;;;;;;5062867;28;20079;-74
2022/03/23 01:03:37;;;;;;;57.97;31.20;;;7.90;99.90;;;;;;5000033;28;20486;-74
2022/03/23 01:06:04;;;;;;;59.10;31.77;;;7.90;99.90;;;;;;4955841;28;20064;-75
2022/03/23 01:08:30;;;;;;;55.97;30.17;;;7.80;99.90;;;;;;5063788;28;20040;-74
2022/03/23 01:10:58;;;;;;;56.03;29.20;;;7.80;99.90;;;;;;5048398;28;20067;-75
2022/03/23 01:13:25;;;;;;;59.47;29.90;;;7.70;99.90;;;;;;5058874;28;20137;-74
2022/03/23 01:16:16;;;;;;;;;;;;;;;;;;;;;
2022/03/23 01:18:43;;;;;;;52.20;28.05;;;7.70;99.90;;;;;;4955960;28;20482;-75
2022/03/23 01:21:10;;;;;;;57.85;31.02;;;7.60;99.90;;;;;;4862557;28;20610;-74
2022/03/23 01:23:36;;;;;;;53.17;29.48;;;7.60;99.90;;;;;;5045690;28;20107;-74
2022/03/23 01:26:04;;;;;;;50.88;28.23;;;7.60;99.90;;;;;;5057494;28;20571;-75
2022/03/23 01:28:30;;;;;;;54.45;29.50;;;7.60;99.90;;;;;;5030119;28;20563;-73
2022/03/23 01:30:57;;;;;;;58.00;28.85;;;7.50;99.90;;;;;;5047956;28;20464;-76
2022/03/23 01:33:23;;;;;;;56.75;30.00;;;7.50;99.90;;;;;;5062162;28;20515;-74
2022/03/23 01:35:50;;;;;;;51.45;28.33;;;7.40;99.90;;;;;;5055760;28;20033;-74
2022/03/23 01:38:16;;;;;;;;;;;7.40;99.90;;;;;;5059392;28;20111;-74
2022/03/23 01:40:42;;;;;;;51.67;26.25;;;7.30;99.90;;;;;;4902708;28;20292;-79
2022/03/23 01:43:11;;;;;;;51.95;27.38;;;7.30;99.90;;;;;;4984249;28;20125;-73
2022/03/23 01:45:37;;;;;;;54.93;28.60;;;7.30;99.90;;;;;;5065031;28;20044;-74
2022/03/23 01:48:03;;;;;;;45.00;25.33;;;7.30;99.90;;;;;;5068826;28;20047;-76
2022/03/23 01:50:29;;;;;;;49.08;27.45;;;7.30;99.90;;;;;;5064812;28;20050;-76
2022/03/23 01:52:55;;;;;;;52.28;27.10;;;7.20;99.90;;;;;;5069191;28;20055;-76
2022/03/23 01:55:20;;;;;;;52.25;26.38;;;7.20;99.90;;;;;;5066525;28;20048;-76
2022/03/23 01:57:51;;;;;;;48.00;26.03;;;7.20;99.90;;;;;;5062723;28;20040;-77
2022/03/23 02:00:21;;;;;;;52.08;26.98;;;7.20;99.90;;;;;;5051427;28;20043;-76
2022/03/23 02:02:47;;;;;;;57.50;27.98;;;7.20;99.90;;;;;;5065041;28;20093;-75
2022/03/23 02:05:14;;;;;;;55.03;28.05;;;7.10;99.90;;;;;;5066406;28;20058;-74
2022/03/23 02:07:42;;;;;;;53.53;28.50;;;7.10;99.90;;;;;;5058996;28;20032;-74
2022/03/23 02:10:08;;;;;;;55.38;28.42;;;7.10;99.90;;;;;;5056382;28;20060;-74
2022/03/23 02:12:34;;;;;;;55.45;28.40;;;7.10;99.90;;;;;;5065822;28;20055;-74
2022/03/23 02:15:13;;;;;;;57.57;28.97;;;7.10;99.90;;;;;;5063845;28;20427;-75
2022/03/23 02:17:42;;;;;;;57.13;30.15;;;7.10;99.90;;;;;;5066613;28;20401;-74
2022/03/23 02:20:09;;;;;;;52.50;28.95;;;7.10;99.90;;;;;;5051457;28;20179;-76
2022/03/23 02:22:35;;;;;;;56.95;29.15;;;7.00;99.90;;;;;;5061312;28;20043;-74
2022/03/23 02:25:00;;;;;;;55.08;28.10;;;7.00;99.90;;;;;;5071470;28;20040;-73
2022/03/23 02:27:27;;;;;;;52.57;27.47;;;7.00;99.90;;;;;;5070853;28;20047;-74
2022/03/23 02:29:57;;;;;;;57.92;30.15;;;7.00;99.90;;;;;;5063838;28;20058;-74
2022/03/23 02:32:24;;;;;;;55.33;27.13;;;6.90;99.90;;;;;;5038886;28;20071;-76
2022/03/23 02:34:50;;;;;;;62.08;30.55;;;6.90;99.90;;;;;;5063003;28;20461;-74
2022/03/23 02:37:16;;;;;;;52.10;28.33;;;6.90;99.90;;;;;;5082485;28;20517;-73
2022/03/23 02:39:42;;;;;;;52.00;27.25;;;6.80;99.90;;;;;;5089184;22;20398;-83
2022/03/23 02:42:08;;;;;;;54.53;29.05;;;6.80;99.90;;;;;;5044759;28;20497;-82
2022/03/23 02:44:38;;;;;;;54.73;28.03;;;6.80;99.90;;;;;;5044136;28;20034;-82
2022/03/23 02:47:12;;;;;;;51.63;27.63;;;6.80;99.90;;;;;;5041478;28;20623;-84
2022/03/23 02:49:44;;;;;;;50.20;28.25;;;6.70;99.90;;;;;;5044060;28;20040;-83
2022/03/23 02:52:12;;;;;;;54.17;29.00;;;6.70;99.90;;;;;;5049004;28;20051;-83
2022/03/23 03:03:47;;;;;;;56.10;29.20;;;6.70;99.90;;;;;;5061276;28;20055;-83
2022/03/23 03:06:13;;;;;;;53.27;27.37;;;6.60;99.90;;;;;;5048071;28;20048;-84
2022/03/23 03:08:48;;;;;;;51.57;28.07;;;6.60;99.90;;;;;;5058581;28;20372;-83
2022/03/23 03:11:18;;;;;;;52.20;29.08;;;6.60;99.90;;;;;;5053770;28;20036;-83
2022/03/23 03:13:49;;;;;;;54.85;28.17;;;6.60;99.90;;;;;;5046419;28;20036;-84
2022/03/23 03:16:16;;;;;;;46.30;26.00;;;6.60;99.90;;;;;;5049454;28;20046;-83
2022/03/23 03:18:41;;;;;;;49.28;27.02;;;6.60;99.90;;;;;;5060134;28;20746;-83
2022/03/23 03:21:08;;;;;;;49.17;27.70;;;6.50;99.90;;;;;;5045150;28;20043;-82
2022/03/23 03:23:40;;;;;;;48.55;26.58;;;6.40;99.90;;;;;;5041247;28;20484;-82
2022/03/23 03:26:06;;;;;;;54.50;27.67;;;6.50;99.90;;;;;;5060795;28;20517;-82
2022/03/23 03:28:34;;;;;;;48.22;26.52;;;6.50;99.90;;;;;;5044478;28;20047;-82
2022/03/23 03:31:01;;;;;;;52.15;27.95;;;6.40;99.90;;;;;;5055211;28;20089;-83
2022/03/23 03:33:27;;;;;;;47.70;26.83;;;6.40;99.90;;;;;;5038820;28;20050;-82
2022/03/23 03:35:52;;;;;;;49.23;27.20;;;6.40;99.90;;;;;;5036056;28;20036;-83
2022/03/23 03:38:18;;;;;;;52.33;27.30;;;6.40;99.90;;;;;;5041492;28;20165;-83
2022/03/23 03:40:45;;;;;;;48.30;26.73;;;6.30;99.90;;;;;;5053874;28;20441;-83
2022/03/23 03:43:11;;;;;;;50.72;29.48;;;6.30;99.90;;;;;;5054374;28;20048;-83
2022/03/23 03:45:36;;;;;;;50.55;26.75;;;6.30;99.90;;;;;;5055653;28;20111;-83
2022/03/23 03:48:02;;;;;;;52.47;27.50;;;6.30;99.90;;;;;;5044131;28;20048;-81
2022/03/23 03:50:28;;;;;;;46.07;26.40;;;6.20;99.90;;;;;;5062684;28;20504;-83
2022/03/23 03:52:55;;;;;;;47.95;26.40;;;6.20;99.90;;;;;;5042350;28;20044;-83
2022/03/23 03:55:20;;;;;;;48.50;27.73;;;6.20;99.90;;;;;;5051414;28;20143;-83
2022/03/23 03:57:47;;;;;;;53.53;28.03;;;6.10;99.90;;;;;;5051111;28;20505;-80
2022/03/23 04:00:13;;;;;;;53.67;27.77;;;6.10;99.90;;;;;;5030282;28;20399;-83
2022/03/23 04:02:38;;;;;;;52.45;27.48;;;6.10;99.90;;;;;;5056925;28;20070;-83
2022/03/23 04:05:05;;;;;;;50.83;26.03;;;6.10;99.90;;;;;;5053601;28;20139;-84
2022/03/23 04:07:33;;;;;;;48.13;27.00;;;6.10;99.90;;;;;;5058524;28;20394;-83
2022/03/23 04:10:06;;;;;;;52.85;28.00;;;6.10;99.90;;;;;;5040586;28;20131;-83
2022/03/23 04:12:34;;;;;;;52.20;28.25;;;6.10;99.90;;;;;;5036507;28;20607;-83
2022/03/23 04:15:00;;;;;;;55.03;27.48;;;6.00;99.90;;;;;;5038164;28;20051;-83
2022/03/23 04:17:27;;;;;;;52.20;26.73;;;6.00;99.90;;;;;;5042149;28;20039;-82
2022/03/23 04:19:53;;;;;;;54.25;26.15;;;6.00;99.90;;;;;;5049010;28;20675;-83
2022/03/23 04:22:21;;;;;;;52.23;29.03;;;5.90;99.90;;;;;;5043535;28;20298;-83
2022/03/23 04:24:47;;;;;;;48.35;27.58;;;5.90;99.90;;;;;;5054977;28;20044;-81
2022/03/23 04:27:13;;;;;;;59.42;28.23;;;5.90;99.90;;;;;;5056154;28;20047;-83
2022/03/23 04:29:41;;;;;;;51.13;27.60;;;5.90;99.90;;;;;;5043989;28;20040;-83
2022/03/23 04:32:09;;;;;;;54.67;27.77;;;5.80;99.90;;;;;;5053485;28;20044;-82
2022/03/23 04:34:34;;;;;;;53.88;28.50;;;5.80;99.90;;;;;;5049500;28;20044;-83
2022/03/23 04:37:01;;;;;;;50.65;27.52;;;5.90;99.90;;;;;;5055302;28;20394;-82
2022/03/23 04:39:26;;;;;;;53.15;28.08;;;5.80;99.90;;;;;;5043081;28;20044;-82
2022/03/23 04:41:52;;;;;;;47.50;25.50;;;5.90;99.90;;;;;;5060410;28;20040;-83
2022/03/23 04:44:18;;;;;;;52.77;27.93;;;5.90;99.90;;;;;;5041209;28;20036;-83
2022/03/23 04:46:44;;;;;;;52.07;26.30;;;5.80;99.90;;;;;;5054345;28;20389;-84
2022/03/23 04:49:10;;;;;;;49.73;27.27;;;5.80;99.90;;;;;;5058968;28;20384;-83
2022/03/23 04:51:36;;;;;;;51.27;27.57;;;5.80;99.90;;;;;;5061183;28;20040;-82
2022/03/23 04:54:02;;;;;;;52.05;25.77;;;5.80;99.90;;;;;;5053210;28;20048;-84
2022/03/23 04:56:28;;;;;;;46.30;25.00;;;5.80;99.90;;;;;;5041514;28;20104;-82
2022/03/23 04:58:54;;;;;;;54.50;27.83;;;5.80;99.90;;;;;;5057571;28;20803;-83
2022/03/23 05:01:21;;;;;;;52.53;27.20;;;5.70;99.90;;;;;;5041245;28;20089;-84
2022/03/23 05:03:47;;;;;;;50.30;26.80;;;5.70;99.90;;;;;;5033817;28;20127;-83
2022/03/23 05:06:12;;;;;;;57.43;29.10;;;5.70;99.90;;;;;;5068915;28;20548;-83
2022/03/23 05:08:38;;;;;;;54.30;28.53;;;5.70;99.90;;;;;;5045152;28;20037;-83
2022/03/23 05:11:04;;;;;;;53.33;26.20;;;5.80;99.90;;;;;;5046887;28;20089;-83
2022/03/23 05:13:30;;;;;;;52.47;26.63;;;5.80;99.90;;;;;;5046672;28;20534;-82
2022/03/23 05:15:55;;;;;;;50.17;26.00;;;5.80;99.90;;;;;;5050090;28;20044;-83
2022/03/23 05:18:21;;;;;;;57.30;26.13;;;5.70;99.90;;;;;;5063808;28;21035;-83
2022/03/23 05:20:48;;;;;;;52.72;26.88;;;5.70;99.90;;;;;;5061605;28;20068;-82
2022/03/23 05:23:13;;;;;;;50.95;26.25;;;5.70;99.90;;;;;;5043582;28;20152;-83
2022/03/23 05:25:39;;;;;;;53.75;26.33;;;5.70;99.90;;;;;;5053950;28;20225;-81
2022/03/23 05:28:09;;;;;;;53.37;28.23;;;5.70;99.90;;;;;;5043069;28;20040;-83
2022/03/23 05:30:35;;;;;;;55.17;27.52;;;5.70;99.90;;;;;;5058510;28;20040;-84
2022/03/23 05:33:01;;;;;;;;;;;5.70;99.90;;;;;;5044243;28;20062;-83
2022/03/23 05:35:27;;;;;;;48.70;25.70;;;5.70;99.90;;;;;;5062268;28;19920;-82
2022/03/23 05:37:53;;;;;;;56.58;27.02;;;5.70;99.90;;;;;;5048392;28;20105;-83
2022/03/23 05:40:21;;;;;;;49.55;26.83;;;5.60;99.90;;;;;;5039904;28;20032;-82
2022/03/23 05:42:47;;;;;;;51.28;26.77;;;5.60;99.90;;;;;;5044305;28;20040;-82
2022/03/23 05:45:14;;;;;;;52.03;26.83;;;5.60;99.90;;;;;;5062442;28;20040;-81
2022/03/23 05:47:40;;;;;;;50.28;26.20;;;5.60;99.90;;;;;;5039968;28;20043;-84
2022/03/23 05:50:07;;;;;;;49.80;27.23;;;5.50;99.90;;;;;;5045566;28;20387;-83
2022/03/23 05:52:33;;;;;;;51.20;25.85;;;5.50;99.90;;;;;;5044556;28;20103;-83
2022/03/23 05:54:59;;;;;;;51.23;26.13;;;5.50;99.90;;;;;;5043490;28;20475;-84
2022/03/23 05:57:24;;;;;;;48.93;27.10;;;5.50;99.90;;;;;;5058114;28;20160;-81
2022/03/23 05:59:50;;;;;;;46.33;25.03;;;5.50;99.90;;;;;;5057157;28;20100;-82
2022/03/23 06:02:16;;;;;;;47.97;25.60;;;5.50;99.90;;;;;;5045901;28;20509;-83
2022/03/23 06:04:41;;;;;;;56.63;26.37;;;5.50;99.90;;;;;;5059927;28;20069;-81
2022/03/23 06:07:07;;;;;;;45.97;25.13;;;5.50;99.90;;;;;;5050610;28;20387;-83
2022/03/23 06:09:35;;;;;;;52.10;26.90;;;5.60;99.90;;;;;;5062308;28;20036;-82
2022/03/23 06:12:01;;;;;;;64.53;27.52;;;5.60;99.90;;;;;;5058252;28;20596;-83
2022/03/23 06:14:27;;;;;;;45.35;24.95;;;5.60;99.90;;;;;;5042119;28;20112;-82
2022/03/23 06:16:53;;;;;;;45.97;26.00;;;5.60;99.90;;;;;;5063249;28;20545;-82
2022/03/23 06:19:19;;;;;;;55.90;28.60;;;5.70;99.90;;;;;;5051480;28;20097;-83
2022/03/23 06:21:44;;;;;;;52.57;28.23;;;5.70;99.90;;;;;;5066077;28;20047;-83
2022/03/23 06:24:10;;;;;;;54.90;27.57;;;5.70;99.90;;;;;;5081851;28;20126;-82
2022/03/23 06:26:36;;;;;;;53.17;27.73;;;5.70;99.90;;;;;;5055737;28;20035;-83
2022/03/23 06:29:02;;;;;;;54.70;27.52;;;5.70;99.90;;;;;;5059255;28;20361;-82
2022/03/23 06:31:27;;;;;;;54.50;29.20;;;5.80;99.90;;;;;;5041833;28;20154;-82
2022/03/23 06:33:53;;;;;;;54.27;28.87;;;5.80;99.90;;;;;;5035821;28;20480;-83
2022/03/23 06:36:19;;;;;;;53.30;29.50;;;5.90;99.90;;;;;;5046475;28;20500;-82
2022/03/23 06:38:44;;;;;;;59.73;31.67;;;5.90;99.90;;;;;;5060236;28;20043;-83
2022/03/23 06:41:10;;;;;;;64.90;32.00;;;6.00;99.90;;;;;;5040626;28;20064;-83
2022/03/23 06:43:36;;;;;;;61.93;32.00;;;6.00;99.90;;;;;;5053386;28;20040;-83
2022/03/23 06:46:03;;;;;;;63.03;32.30;;;6.10;99.90;;;;;;5046596;28;20040;-82
2022/03/23 06:48:28;;;;;;;64.38;32.45;;;6.20;99.90;;;;;;5042567;28;20520;-82
2022/03/23 06:50:54;;;;;;;61.83;32.40;;;6.20;99.90;;;;;;5039435;28;20135;-84
2022/03/23 06:53:20;;;;;;;61.20;31.57;;;6.30;99.90;;;;;;5037397;28;20806;-83
2022/03/23 06:55:45;;;;;;;68.50;34.37;;;6.30;99.90;;;;;;5056171;28;20070;-82
2022/03/23 06:58:11;;;;;;;65.13;35.33;;;6.50;99.90;;;;;;5057049;28;20052;-83
2022/03/23 07:00:38;;;;;;;67.47;34.55;;;6.50;99.90;;;;;;5038554;28;20047;-83
2022/03/23 07:03:05;;;;;;;;;;;6.60;99.90;;;;;;5037568;28;20063;-83
2022/03/23 07:05:33;;;;;;;72.25;34.38;;;6.60;99.90;;;;;;5036248;28;19920;-82
2022/03/23 07:10:43;;;;;;;67.28;35.35;;;6.80;99.90;;;;;;5058084;28;20584;-82
2022/03/23 07:13:08;;;;;;;72.93;35.23;;;6.90;99.90;;;;;;5045525;28;20084;-82
2022/03/23 07:15:34;;;;;;;68.47;35.20;;;6.90;99.90;;;;;;5037595;28;20047;-82
2022/03/23 07:18:00;;;;;;;69.53;35.87;;;7.00;99.90;;;;;;5055727;28;20044;-82
2022/03/23 07:20:27;;;;;;;68.93;34.10;;;7.10;99.90;;;;;;5041559;28;20044;-81
2022/03/23 07:22:52;;;;;;;67.88;35.05;;;7.20;99.90;;;;;;5063601;28;20488;-82
2022/03/23 07:25:18;;;;;;;71.93;37.80;;;7.30;99.90;;;;;;5042171;28;20108;-82
2022/03/23 07:27:43;;;;;;;76.23;35.37;;;7.30;99.90;;;;;;5054896;28;20060;-83
2022/03/23 07:30:11;;;;;;;70.13;36.70;;;7.40;99.90;;;;;;5042126;28;20070;-82
2022/03/23 07:32:38;;;;;;;61.67;32.45;;;7.50;99.90;;;;;;5053349;28;20040;-82
2022/03/23 07:35:04;;;;;;;74.38;36.78;;;7.60;99.90;;;;;;5043218;28;20058;-82
2022/03/23 07:37:31;;;;;;;69.25;34.10;;;7.70;99.90;;;;;;5045222;28;20040;-82
2022/03/23 07:39:57;;;;;;;68.97;34.90;;;7.80;99.90;;;;;;5039182;28;20050;-82
2022/03/23 07:42:22;;;;;;;61.03;32.50;;;7.80;99.90;;;;;;5035948;28;20044;-84
2022/03/23 07:44:48;;;;;;;68.83;33.37;;;7.90;99.90;;;;;;5056822;28;20118;-82
2022/03/23 07:47:15;;;;;;;69.10;33.10;;;8.00;99.90;;;;;;5054127;28;20028;-82
2022/03/23 07:49:43;;;;;;;71.97;32.40;;;8.20;99.90;;;;;;5053464;28;20270;-82
2022/03/23 07:52:09;;;;;;;67.40;32.45;;;8.20;99.90;;;;;;5057436;28;20461;-82
2022/03/23 07:54:38;;;;;;;63.92;31.52;;;8.30;99.90;;;;;;5040668;28;20492;-81
2022/03/23 07:57:04;;;;;;;58.25;32.25;;;8.40;99.90;;;;;;5044183;28;20521;-83
2022/03/23 07:59:30;;;;;;;60.47;30.15;;;8.50;99.90;;;;;;5045990;28;20040;-80
2022/03/23 08:01:56;;;;;;;55.63;29.37;;;8.60;99.90;;;;;;5067824;28;20071;-82
2022/03/23 08:04:21;;;;;;;57.90;30.07;;;8.80;99.90;;;;;;5057291;28;21699;-82
2022/03/23 08:06:47;;;;;;;58.00;29.77;;;8.90;99.90;;;;;;5059397;28;20494;-82
2022/03/23 08:09:13;;;;;;;55.03;28.87;;;9.00;99.90;;;;;;5052579;28;20803;-82
2022/03/23 08:11:38;;;;;;;53.03;28.57;;;9.10;99.90;;;;;;5047668;28;20842;-82
2022/03/23 08:14:04;;;;;;;53.27;28.43;;;9.30;99.90;;;;;;5055378;28;20596;-82
2022/03/23 08:16:30;;;;;;;55.03;28.87;;;9.30;99.90;;;;;;5038409;28;20640;-82
2022/03/23 08:18:56;;;;;;;50.70;27.80;;;9.50;99.90;;;;;;5039561;28;20048;-82
2022/03/23 08:21:23;;;;;;;48.63;24.97;;;9.60;99.90;;;;;;5055258;28;20401;-83
2022/03/23 08:23:49;;;;;;;47.38;25.98;;;9.70;99.90;;;;;;5041913;28;20032;-82
2022/03/23 08:26:15;;;;;;;;;;;9.90;99.90;;;;;;5041678;28;20040;-82
2022/03/23 08:28:42;;;;;;;44.78;25.50;;;10.00;99.90;;;;;;5040990;28;19920;-82
2022/03/23 08:31:09;;;;;;;53.92;27.00;;;10.10;99.90;;;;;;5052697;28;20250;-82
2022/03/23 08:33:34;;;;;;;;;;;10.20;99.90;;;;;;5045722;28;20100;-82
2022/03/23 08:36:01;;;;;;;50.47;25.98;;;10.30;99.90;;;;;;5035013;28;20353;-82
2022/03/23 08:38:27;;;;;;;49.75;25.55;;;10.40;99.90;;;;;;5039604;28;20047;-83
2022/03/23 08:40:59;;;;;;;49.65;25.98;;;10.50;99.90;;;;;;5075577;23;20067;-88
2022/03/23 08:43:43;;;;;;;46.60;24.45;;;10.70;99.90;;;;;;5057260;28;20054;-90
2022/03/23 08:46:15;;;;;;;45.33;23.65;;;10.80;99.90;;;;;;5056630;28;20393;-90
2022/03/23 08:48:56;;;;;;;46.72;24.63;;;11.00;99.90;;;;;;5059297;28;20032;-91
2022/03/23 08:51:31;;;;;;;46.65;23.85;;;11.10;99.90;;;;;;5038901;28;20036;-90
2022/03/23 08:54:09;;;;;;;37.65;22.25;;;11.20;99.90;;;;;;5057961;28;20043;-90
2022/03/23 08:56:56;;;;;;;42.55;22.08;;;11.30;99.90;;;;;;5030065;28;20043;-90
2022/03/23 09:00:02;;;;;;;42.75;22.67;;;11.50;99.90;;;;;;5056567;28;20047;-89
2022/03/23 09:02:41;;;;;;;45.50;23.23;;;11.50;99.90;;;;;;5028382;28;20048;-92
2022/03/23 09:05:10;;;;;;;39.97;21.75;;;11.70;99.90;;;;;;5032570;28;20041;-91
2022/03/23 09:07:47;;;;;;;36.72;21.50;;;11.90;99.90;;;;;;5038818;28;20454;-90
2022/03/23 09:10:23;;;;;;;45.00;24.08;;;12.00;99.90;;;;;;5033451;28;20044;-90
2022/03/23 09:13:06;;;;;;;39.17;21.50;;;12.10;99.90;;;;;;5067823;28;20051;-87
2022/03/23 09:15:35;;;;;;;40.30;22.23;;;12.30;99.90;;;;;;5035392;28;20044;-89
2022/03/23 09:18:03;;;;;;;42.70;21.55;;;12.40;99.90;;;;;;5039102;28;20043;-90
2022/03/23 09:20:32;;;;;;;39.78;21.83;;;12.50;99.90;;;;;;5050012;28;20048;-91
2022/03/23 09:23:04;;;;;;;43.45;22.33;;;12.50;99.90;;;;;;5044788;28;20161;-89
2022/03/23 09:25:29;;;;;;;37.55;21.48;;;12.80;99.90;;;;;;5057050;28;20089;-90
2022/03/23 09:28:03;;;;;;;45.17;22.77;;;12.90;99.90;;;;;;5054387;28;20357;-90
2022/03/23 09:30:45;;;;;;;41.80;21.83;;;13.10;99.90;;;;;;5048067;28;20662;-90
2022/03/23 09:33:40;;;;;;;35.30;20.30;;;13.20;99.90;;;;;;5040289;28;20568;-90
2022/03/23 09:39:14;;;;;;;32.80;19.60;;;13.50;97.50;;;;;;5045952;28;20083;-92
2022/03/23 09:41:58;;;;;;;38.00;20.60;;;13.70;94.50;;;;;;5054106;28;20048;-91
2022/03/23 09:44:42;;;;;;;35.72;19.20;;;13.80;94.10;;;;;;5053933;28;20056;-93
2022/03/23 09:47:20;;;;;;;34.47;19.05;;;14.00;91.10;;;;;;5057087;28;20174;-92
2022/03/23 09:49:53;;;;;;;32.53;17.83;;;14.20;88.50;;;;;;5058024;28;20120;-93
2022/03/23 09:52:19;;;;;;;33.35;18.30;;;14.30;86.70;;;;;;5052987;28;20131;-93
2022/03/23 09:54:53;;;;;;;30.02;17.60;;;14.50;82.70;;;;;;5055563;28;20044;-93
2022/03/23 09:57:41;;;;;;;35.95;18.80;;;14.60;81.70;;;;;;5067941;28;20150;-93
2022/03/23 10:00:12;;;;;;;33.85;18.02;;;14.70;79.30;;;;;;5074251;28;20047;-95
2022/03/23 10:03:31;;;;;;;;;;;;;;;;;;;;;
2022/03/23 10:06:44;;;;;;;33.80;18.73;;;15.10;73.80;;;;;;5074081;28;20044;-92
2022/03/23 10:09:49;;;;;;;29.08;17.92;;;15.30;73.40;;;;;;5060642;28;20048;-93
2022/03/23 10:12:52;;;;;;;33.97;19.05;;;15.40;68.80;;;;;;5058375;28;20062;-91
2022/03/23 10:15:52;;;;;;;30.48;18.45;;;15.60;66.60;;;;;;5046434;28;20036;-91
2022/03/23 10:18:21;;;;;;;26.95;16.85;;;15.80;65.70;;;;;;5058404;28;20412;-91
2022/03/23 10:20:47;;;;;;;32.97;16.58;;;15.90;63.60;;;;;;5064316;28;20048;-92
2022/03/23 10:23:20;;;;;;;32.90;17.35;;;16.00;63.30;;;;;;5041409;28;20186;-91
2022/03/23 10:26:15;;;;;;;30.35;18.77;;;16.20;61.50;;;;;;5037738;28;20074;-91
2022/03/23 10:28:51;;;;;;;37.90;18.40;;;16.30;61.10;;;;;;5061044;28;20040;-90
2022/03/23 10:31:35;;;;;;;;;;;16.40;61.30;;;;;;5060307;28;20032;-89
2022/03/23 10:34:13;;;;;;;28.00;16.17;;;16.60;60.60;;;;;;5054808;28;19942;-90
2022/03/23 10:36:42;;;;;;;30.52;17.98;;;16.80;61.20;;;;;;5079388;28;20048;-90
2022/03/23 10:39:16;;;;;;;29.08;17.55;;;16.80;60.40;;;;;;5053748;28;20040;-92
2022/03/23 10:41:43;;;;;;;28.38;17.15;;;16.90;59.00;;;;;;5056021;28;20298;-89
2022/03/23 10:44:39;;;;;;;30.63;16.73;;;17.00;58.00;;;;;;5076961;28;20047;-91
2022/03/23 10:47:22;;;;;;;24.05;16.02;;;17.20;56.10;;;;;;5045282;28;20071;-90
2022/03/23 10:49:48;;;;;;;24.83;14.77;;;17.20;57.20;;;;;;5056166;28;20040;-90
2022/03/23 10:52:18;;;;;;;26.48;13.60;;;17.40;56.30;;;;;;5042717;28;20044;-91
2022/03/23 10:55:03;;;;;;;24.45;14.48;;;17.40;54.80;;;;;;5047817;28;20517;-90
2022/03/23 10:57:45;;;;;;;23.42;14.00;;;17.50;52.60;;;;;;5058277;28;20071;-91
2022/03/23 11:00:32;;;;;;;24.20;13.75;;;17.60;53.30;;;;;;5059252;28;20072;-89
2022/03/23 11:02:59;;;;;;;23.00;12.88;;;17.70;50.80;;;;;;5072963;28;20051;-91
2022/03/23 11:05:36;;;;;;;25.95;14.25;;;17.70;51.50;;;;;;5054495;28;20049;-91
2022/03/23 11:08:08;;;;;;;23.80;14.05;;;17.80;50.60;;;;;;5075848;28;20576;-91
2022/03/23 11:16:25;;;;;;;24.55;12.48;;;18.20;48.20;;;;;;5050997;28;20082;-90
2022/03/23 11:19:08;;;;;;;22.35;12.68;;;18.30;49.30;;;;;;5050229;28;20047;-90
2022/03/23 11:22:03;;;;;;;25.08;11.25;;;18.40;47.70;;;;;;5042900;28;20501;-88
2022/03/23 11:24:35;;;;;;;21.35;10.85;;;18.50;48.80;;;;;;5038149;28;20497;-88
2022/03/23 11:27:01;;;;;;;16.75;10.60;;;18.70;49.10;;;;;;5041035;28;20040;-90
2022/03/23 11:29:27;;;;;;;21.45;12.40;;;18.80;49.00;;;;;;5043224;28;20310;-90
2022/03/23 11:31:54;;;;;;;25.02;12.68;;;19.00;47.60;;;;;;5039852;28;20497;-90
2022/03/23 11:34:25;;;;;;;22.95;10.23;;;19.00;46.40;;;;;;5039406;28;20039;-90
2022/03/23 11:37:03;;;;;;;21.05;7.95;;;19.10;46.50;;;;;;5041491;28;20040;-89
2022/03/23 11:39:31;;;;;;;23.02;7.25;;;19.20;45.90;;;;;;5074714;28;20575;-90
2022/03/23 11:42:03;;;;;;;22.40;8.65;;;19.30;45.70;;;;;;5050827;28;20044;-88
2022/03/23 11:44:40;;;;;;;29.52;10.35;;;19.30;45.70;;;;;;5021434;28;20161;-89
2022/03/23 12:01:38;;;;;;;17.52;8.05;;;19.90;43.10;;;;;;4922134;29;20139;-90
2022/03/23 12:04:04;;;;;;;20.08;10.23;;;20.00;45.00;;;;;;5022264;28;20394;-78
2022/03/23 12:06:41;;;;;;;19.65;8.70;;;20.10;44.00;;;;;;5028845;28;20048;-78
2022/03/23 12:09:08;;;;;;;20.42;9.57;;;20.20;42.20;;;;;;5007938;28;20041;-78
2022/03/23 12:11:45;;;;;;;19.05;8.50;;;20.30;43.20;;;;;;5029338;28;20040;-78
2022/03/23 12:14:27;;;;;;;19.13;9.27;;;20.40;42.30;;;;;;5022001;28;20040;-78
2022/03/23 12:16:52;;;;;;;17.17;9.18;;;20.50;41.00;;;;;;5043222;28;20036;-79
2022/03/23 12:19:26;;;;;;;17.13;8.15;;;20.60;42.80;;;;;;5021401;28;20049;-78
2022/03/23 12:22:06;;;;;;;20.67;8.43;;;20.60;42.20;;;;;;5020954;28;20477;-78
2022/03/23 12:24:35;;;;;;;18.48;7.28;;;20.70;40.70;;;;;;5027688;28;20535;-78
2022/03/23 12:27:07;;;;;;;10.30;5.93;;;20.60;42.40;;;;;;5036381;28;20401;-78
2022/03/23 12:29:36;;;;;;;18.23;8.45;;;20.80;43.40;;;;;;5030988;28;20059;-77
2022/03/23 12:32:08;;;;;;;16.92;8.43;;;20.90;42.60;;;;;;5011411;28;20048;-78
2022/03/23 12:34:36;;;;;;;18.23;8.30;;;20.90;41.90;;;;;;5018446;28;20064;-78
2022/03/23 12:37:10;;;;;;;13.07;7.95;;;20.90;41.70;;;;;;5025439;28;20045;-78
2022/03/23 12:39:41;;;;;;;15.88;9.30;;;20.90;41.40;;;;;;5010036;28;20056;-77
2022/03/23 12:42:15;;;;;;;16.30;7.80;;;20.90;41.90;;;;;;5021252;28;20301;-78
2022/03/23 12:44:42;;;;;;;18.95;8.38;;;20.90;42.10;;;;;;5030315;28;20088;-78
2022/03/23 12:47:10;;;;;;;20.67;8.38;;;21.00;41.70;;;;;;5030347;28;20053;-77
2022/03/23 12:58:24;;;;;;;17.35;6.32;;;21.40;41.10;;;;;;5027609;28;20509;-78
2022/03/23 13:00:52;;;;;;;15.52;7.55;;;21.40;41.40;;;;;;5022803;28;20069;-78
2022/03/23 13:03:22;;;;;;;15.80;9.05;;;21.40;41.20;;;;;;5021082;28;20041;-78
2022/03/23 13:05:54;;;;;;;18.90;6.82;;;21.50;40.70;;;;;;5023808;28;20571;-78
2022/03/23 13:08:38;;;;;;;12.57;6.18;;;21.60;40.90;;;;;;5016921;28;20512;-78
2022/03/23 13:11:08;;;;;;;17.48;6.03;;;21.60;40.60;;;;;;5021890;28;20077;-77
2022/03/23 13:13:36;;;;;;;12.60;4.05;;;21.70;40.20;;;;;;5020721;28;20401;-78
2022/03/23 13:16:11;;;;;;;11.40;4.70;;;21.70;40.80;;;;;;5041876;28;20045;-77
2022/03/23 13:18:38;;;;;;;12.80;5.20;;;21.70;40.60;;;;;;5030830;28;20041;-78
2022/03/23 13:21:13;;;;;;;15.93;5.63;;;21.80;41.20;;;;;;5022285;28;20095;-78
2022/03/23 13:23:43;;;;;;;17.13;5.78;;;21.80;40.40;;;;;;5019728;28;20120;-78
2022/03/23 13:26:10;;;;;;;16.67;6.53;;;21.70;39.80;;;;;;5011039;28;20048;-78
2022/03/23 13:28:41;;;;;;;12.68;6.65;;;21.70;40.50;;;;;;5020694;28;20037;-78
2022/03/23 13:31:08;;;;;;;14.05;6.25;;;21.80;39.90;;;;;;5022099;28;20099;-78
2022/03/23 13:33:50;;;;;;;17.38;6.20;;;21.90;40.50;;;;;;5009940;28;20080;-78
2022/03/23 13:36:18;;;;;;;14.48;7.78;;;21.90;40.00;;;;;;5023932;28;20103;-78